createdAt,value
2018-05-17T00:00:00.780Z,0.00
2018-05-17T00:01:00.776Z,0.00
2018-05-17T00:02:00.737Z,0.00
2018-05-17T00:03:00.747Z,0.00
2018-05-17T00:04:00.744Z,0.00
2018-05-17T00:05:00.669Z,0.00
2018-05-17T00:06:00.624Z,0.00
2018-05-17T00:07:00.597Z,0.00
2018-05-17T00:08:00.579Z,0.00
2018-05-17T00:09:00.604Z,0.00
2018-05-17T00:10:00.527Z,0.00
2018-05-17T00:11:00.491Z,0.00
2018-05-17T00:12:00.466Z,0.00
2018-05-17T00:13:00.442Z,0.00
2018-05-17T00:14:00.464Z,0.00
2018-05-17T00:15:00.391Z,0.00
2018-05-17T00:16:00.361Z,0.00
2018-05-17T00:17:00.342Z,0.00
2018-05-17T00:18:00.322Z,0.00
2018-05-17T00:19:00.337Z,0.00
2018-05-17T00:20:00.257Z,0.00
2018-05-17T00:21:00.228Z,0.00
2018-05-17T00:22:00.247Z,0.00
2018-05-17T00:23:00.995Z,0.00
2018-05-17T00:24:00.820Z,0.00
2018-05-17T00:25:00.174Z,0.00
2018-05-17T00:26:00.145Z,0.00
2018-05-17T00:27:00.080Z,0.00
2018-05-17T00:28:00.047Z,0.00
2018-05-17T00:29:00.016Z,0.00
2018-05-17T00:29:59.996Z,0.00
2018-05-17T00:31:00.016Z,0.00
2018-05-17T00:32:00.068Z,0.00
2018-05-17T00:33:02.420Z,0.00
2018-05-17T00:33:59.887Z,0.00
2018-05-17T00:34:59.866Z,0.00
2018-05-17T00:35:59.913Z,0.00
2018-05-17T00:36:59.805Z,0.00
2018-05-17T00:37:59.789Z,0.00
2018-05-17T00:38:59.756Z,0.00
2018-05-17T00:39:59.778Z,0.00
2018-05-17T00:40:59.697Z,0.00
2018-05-17T00:41:59.676Z,0.00
2018-05-17T00:42:59.715Z,0.00
2018-05-17T00:43:59.624Z,0.00
2018-05-17T00:44:59.590Z,0.00
2018-05-17T00:45:59.565Z,0.00
2018-05-17T00:46:59.541Z,0.00
2018-05-17T00:47:59.563Z,0.00
2018-05-17T00:48:59.484Z,0.00
2018-05-17T00:49:59.460Z,0.00
2018-05-17T00:50:59.434Z,0.00
2018-05-17T00:51:59.487Z,0.00
2018-05-17T00:52:59.379Z,0.00
2018-05-17T00:53:59.358Z,0.00
2018-05-17T00:54:59.328Z,0.00
2018-05-17T00:55:59.366Z,0.00
2018-05-17T00:56:59.274Z,0.00
2018-05-17T00:57:59.256Z,0.00
2018-05-17T00:58:59.231Z,0.00
2018-05-17T00:59:59.200Z,0.00
2018-05-17T01:00:59.222Z,0.00
2018-05-17T01:01:59.144Z,0.00
2018-05-17T01:02:59.118Z,0.00
2018-05-17T01:03:59.134Z,0.00
2018-05-17T01:04:59.065Z,0.00
2018-05-17T01:05:59.038Z,0.00
2018-05-17T01:06:59.012Z,0.00
2018-05-17T01:07:58.984Z,0.00
2018-05-17T01:08:59.008Z,0.00
2018-05-17T01:09:58.937Z,0.00
2018-05-17T01:10:58.953Z,0.00
2018-05-17T01:11:58.883Z,0.00
2018-05-17T01:12:58.855Z,0.00
2018-05-17T01:13:58.872Z,0.00
2018-05-17T01:14:58.854Z,0.00
2018-05-17T01:15:58.778Z,0.00
2018-05-17T01:16:58.747Z,0.00
2018-05-17T01:17:58.713Z,0.00
2018-05-17T01:18:58.705Z,0.00
2018-05-17T01:19:58.720Z,0.00
2018-05-17T01:20:58.649Z,0.00
2018-05-17T01:21:58.614Z,0.00
2018-05-17T01:22:58.605Z,0.00
2018-05-17T01:23:58.558Z,0.00
2018-05-17T01:24:58.589Z,0.00
2018-05-17T01:25:58.505Z,0.00
2018-05-17T01:26:58.486Z,0.00
2018-05-17T01:27:58.460Z,0.00
2018-05-17T01:28:58.431Z,0.00
2018-05-17T01:29:58.440Z,0.00
2018-05-17T01:30:58.422Z,0.00
2018-05-17T01:31:58.340Z,0.00
2018-05-17T01:32:58.397Z,0.00
2018-05-17T01:33:58.289Z,0.00
2018-05-17T01:34:58.303Z,0.00
2018-05-17T01:35:58.283Z,0.00
2018-05-17T01:36:58.205Z,0.00
2018-05-17T01:37:58.178Z,0.00
2018-05-17T01:38:58.157Z,0.00
2018-05-17T01:39:58.126Z,0.00
2018-05-17T01:40:58.141Z,0.00
2018-05-17T01:41:58.072Z,0.00
2018-05-17T01:42:58.077Z,0.00
2018-05-17T01:43:58.016Z,0.00
2018-05-17T01:44:57.992Z,0.00
2018-05-17T01:45:58.016Z,0.00
2018-05-17T01:46:57.941Z,0.00
2018-05-17T01:47:57.913Z,0.00
2018-05-17T01:48:57.886Z,0.00
2018-05-17T01:49:57.857Z,0.00
2018-05-17T01:50:57.896Z,0.00
2018-05-17T01:51:57.806Z,0.00
2018-05-17T01:52:57.785Z,0.00
2018-05-17T01:53:57.750Z,0.00
2018-05-17T01:54:57.722Z,0.00
2018-05-17T01:55:57.741Z,0.00
2018-05-17T01:56:57.669Z,0.00
2018-05-17T01:57:57.636Z,0.00
2018-05-17T01:58:57.657Z,0.00
2018-05-17T01:59:57.588Z,0.00
2018-05-17T02:00:57.560Z,0.00
2018-05-17T02:01:57.535Z,0.00
2018-05-17T02:02:57.548Z,0.00
2018-05-17T02:03:57.485Z,0.00
2018-05-17T02:04:57.456Z,0.00
2018-05-17T02:05:57.421Z,0.00
2018-05-17T02:06:57.393Z,0.00
2018-05-17T02:07:57.412Z,0.00
2018-05-17T02:08:57.340Z,0.00
2018-05-17T02:09:57.307Z,0.00
2018-05-17T02:10:57.289Z,0.00
2018-05-17T02:11:57.258Z,0.00
2018-05-17T02:12:57.274Z,0.00
2018-05-17T02:13:57.253Z,0.00
2018-05-17T02:14:57.186Z,0.00
2018-05-17T02:15:57.145Z,0.00
2018-05-17T02:16:57.119Z,0.00
2018-05-17T02:17:57.151Z,0.00
2018-05-17T02:18:57.064Z,0.00
2018-05-17T02:19:57.930Z,0.00
2018-05-17T02:20:57.020Z,0.00
2018-05-17T02:21:56.983Z,0.00
2018-05-17T02:22:56.996Z,0.00
2018-05-17T02:23:56.996Z,0.00
2018-05-17T02:24:56.898Z,0.00
2018-05-17T02:25:56.872Z,0.00
2018-05-17T02:26:56.856Z,0.00
2018-05-17T02:27:56.820Z,0.00
2018-05-17T02:28:56.843Z,0.00
2018-05-17T02:29:56.778Z,0.00
2018-05-17T02:30:56.735Z,0.00
2018-05-17T02:31:56.710Z,0.00
2018-05-17T02:32:56.689Z,0.00
2018-05-17T02:33:56.694Z,0.00
2018-05-17T02:34:56.679Z,0.00
2018-05-17T02:35:56.605Z,0.00
2018-05-17T02:36:56.570Z,0.00
2018-05-17T02:37:56.551Z,0.00
2018-05-17T02:38:56.525Z,0.00
2018-05-17T02:39:56.548Z,0.00
2018-05-17T02:40:56.462Z,0.00
2018-05-17T02:41:56.447Z,0.00
2018-05-17T02:42:56.410Z,0.00
2018-05-17T02:43:56.382Z,0.00
2018-05-17T02:44:56.417Z,0.00
2018-05-17T02:45:56.330Z,0.00
2018-05-17T02:46:56.301Z,0.00
2018-05-17T02:47:56.273Z,0.00
2018-05-17T02:48:56.245Z,0.00
2018-05-17T02:49:56.274Z,0.00
2018-05-17T02:50:56.194Z,0.00
2018-05-17T02:51:56.165Z,0.00
2018-05-17T02:52:56.135Z,0.00
2018-05-17T02:53:56.106Z,0.00
2018-05-17T02:54:56.127Z,0.00
2018-05-17T02:55:56.055Z,0.00
2018-05-17T02:56:56.042Z,0.00
2018-05-17T02:57:56.048Z,0.00
2018-05-17T02:58:55.972Z,5.63
2018-05-17T02:59:55.941Z,5.63
2018-05-17T03:00:55.924Z,5.63
2018-05-17T03:01:55.932Z,5.63
2018-05-17T03:02:55.863Z,5.63
2018-05-17T03:03:55.880Z,5.63
2018-05-17T03:04:55.812Z,5.63
2018-05-17T03:05:55.781Z,5.63
2018-05-17T03:06:55.758Z,11.25
2018-05-17T03:07:55.720Z,11.25
2018-05-17T03:08:55.740Z,11.25
2018-05-17T03:09:55.703Z,11.25
2018-05-17T03:10:55.638Z,11.25
2018-05-17T03:11:56.446Z,11.25
2018-05-17T03:12:55.588Z,16.88
2018-05-17T03:13:55.602Z,16.88
2018-05-17T03:14:55.572Z,16.88
2018-05-17T03:15:55.522Z,16.88
2018-05-17T03:16:55.474Z,22.50
2018-05-17T03:17:55.442Z,22.50
2018-05-17T03:18:55.940Z,22.50
2018-05-17T03:19:55.452Z,28.13
2018-05-17T03:20:55.364Z,28.13
2018-05-17T03:21:55.936Z,28.13
2018-05-17T03:22:55.307Z,33.75
2018-05-17T03:23:55.280Z,33.75
2018-05-17T03:24:55.516Z,33.75
2018-05-17T03:25:55.222Z,39.38
2018-05-17T03:26:55.196Z,39.38
2018-05-17T03:27:55.183Z,45.00
2018-05-17T03:28:55.947Z,45.00
2018-05-17T03:29:55.214Z,45.00
2018-05-17T03:30:55.083Z,45.00
2018-05-17T03:31:55.942Z,50.63
2018-05-17T03:32:55.030Z,50.63
2018-05-17T03:33:55.046Z,50.63
2018-05-17T03:34:55.948Z,56.25
2018-05-17T03:35:54.946Z,56.25
2018-05-17T03:36:54.924Z,56.25
2018-05-17T03:37:55.442Z,61.88
2018-05-17T03:38:54.911Z,61.88
2018-05-17T03:39:54.841Z,61.88
2018-05-17T03:40:54.812Z,61.88
2018-05-17T03:41:54.781Z,67.50
2018-05-17T03:42:54.753Z,67.50
2018-05-17T03:43:54.780Z,67.50
2018-05-17T03:44:54.702Z,67.50
2018-05-17T03:45:55.444Z,73.13
2018-05-17T03:46:54.644Z,73.13
2018-05-17T03:47:54.618Z,73.13
2018-05-17T03:48:54.993Z,78.75
2018-05-17T03:49:54.568Z,78.75
2018-05-17T03:50:54.543Z,78.75
2018-05-17T03:51:54.507Z,84.38
2018-05-17T03:52:54.525Z,84.38
2018-05-17T03:53:55.458Z,90.00
2018-05-17T03:54:54.422Z,90.00
2018-05-17T03:55:54.943Z,90.00
2018-05-17T03:56:54.414Z,95.63
2018-05-17T03:57:54.385Z,95.63
2018-05-17T03:58:54.943Z,95.63
2018-05-17T03:59:54.289Z,95.63
2018-05-17T04:00:54.277Z,95.63
2018-05-17T04:01:54.294Z,101.25
2018-05-17T04:02:54.946Z,101.25
2018-05-17T04:03:54.184Z,106.88
2018-05-17T04:04:54.150Z,106.88
2018-05-17T04:05:54.122Z,106.88
2018-05-17T04:06:54.140Z,112.50
2018-05-17T04:07:54.073Z,112.50
2018-05-17T04:08:54.094Z,118.13
2018-05-17T04:09:54.017Z,118.13
2018-05-17T04:10:53.989Z,123.75
2018-05-17T04:11:53.961Z,123.75
2018-05-17T04:12:53.932Z,129.38
2018-05-17T04:13:54.014Z,129.38
2018-05-17T04:14:53.876Z,135.00
2018-05-17T04:15:53.852Z,140.63
2018-05-17T04:16:54.450Z,140.63
2018-05-17T04:17:53.807Z,146.25
2018-05-17T04:18:54.015Z,146.25
2018-05-17T04:19:53.749Z,151.88
2018-05-17T04:20:53.719Z,151.88
2018-05-17T04:21:53.683Z,157.50
2018-05-17T04:22:53.660Z,157.50
2018-05-17T04:23:53.683Z,157.50
2018-05-17T04:24:53.603Z,157.50
2018-05-17T04:25:53.577Z,163.13
2018-05-17T04:26:53.550Z,163.13
2018-05-17T04:27:53.522Z,168.75
2018-05-17T04:28:53.536Z,168.75
2018-05-17T04:29:53.463Z,174.38
2018-05-17T04:30:53.439Z,174.38
2018-05-17T04:31:53.416Z,180.00
2018-05-17T04:32:53.423Z,180.00
2018-05-17T04:33:53.356Z,185.63
2018-05-17T04:34:53.394Z,185.63
2018-05-17T04:35:53.303Z,191.25
2018-05-17T04:36:53.273Z,191.25
2018-05-17T04:37:53.257Z,196.88
2018-05-17T04:38:53.264Z,196.88
2018-05-17T04:39:53.234Z,202.50
2018-05-17T04:40:53.215Z,208.13
2018-05-17T04:41:53.146Z,208.13
2018-05-17T04:42:53.114Z,213.75
2018-05-17T04:43:53.144Z,213.75
2018-05-17T04:44:53.059Z,219.38
2018-05-17T04:45:53.074Z,225.00
2018-05-17T04:46:53.015Z,230.63
2018-05-17T04:47:52.979Z,230.63
2018-05-17T04:48:53.012Z,236.25
2018-05-17T04:49:52.925Z,241.88
2018-05-17T04:50:52.896Z,241.88
2018-05-17T04:51:52.912Z,241.88
2018-05-17T04:52:52.846Z,241.88
2018-05-17T04:53:53.040Z,241.88
2018-05-17T04:54:52.852Z,247.50
2018-05-17T04:55:52.765Z,253.13
2018-05-17T04:56:52.757Z,258.75
2018-05-17T04:57:52.707Z,258.75
2018-05-17T04:58:53.006Z,258.75
2018-05-17T04:59:52.714Z,264.38
2018-05-17T05:00:52.634Z,275.63
2018-05-17T05:01:52.598Z,286.88
2018-05-17T05:02:53.085Z,298.13
2018-05-17T05:03:52.560Z,343.13
2018-05-17T05:04:52.519Z,388.13
2018-05-17T05:05:52.505Z,393.75
2018-05-17T05:06:52.466Z,365.63
2018-05-17T05:07:52.516Z,348.75
2018-05-17T05:08:52.463Z,382.50
2018-05-17T05:09:52.386Z,388.13
2018-05-17T05:10:52.363Z,427.50
2018-05-17T05:11:52.333Z,472.50
2018-05-17T05:12:52.308Z,545.63
2018-05-17T05:13:52.324Z,556.88
2018-05-17T05:14:52.301Z,472.50
2018-05-17T05:15:52.232Z,405.00
2018-05-17T05:16:52.212Z,410.63
2018-05-17T05:17:52.177Z,489.38
2018-05-17T05:18:52.199Z,461.25
2018-05-17T05:19:52.149Z,517.50
2018-05-17T05:20:52.105Z,472.50
2018-05-17T05:21:52.078Z,438.75
2018-05-17T05:22:52.059Z,405.00
2018-05-17T05:23:52.070Z,388.13
2018-05-17T05:24:52.000Z,365.63
2018-05-17T05:25:51.967Z,354.38
2018-05-17T05:26:51.944Z,354.38
2018-05-17T05:27:51.921Z,354.38
2018-05-17T05:28:51.941Z,360.00
2018-05-17T05:29:51.866Z,360.00
2018-05-17T05:30:51.843Z,371.25
2018-05-17T05:31:51.860Z,382.50
2018-05-17T05:32:51.789Z,393.75
2018-05-17T05:33:51.772Z,416.25
2018-05-17T05:34:51.737Z,427.50
2018-05-17T05:35:51.765Z,433.13
2018-05-17T05:36:51.682Z,444.38
2018-05-17T05:37:51.719Z,455.63
2018-05-17T05:38:51.634Z,483.75
2018-05-17T05:39:51.611Z,495.00
2018-05-17T05:40:51.584Z,506.25
2018-05-17T05:41:51.558Z,517.50
2018-05-17T05:42:51.588Z,540.00
2018-05-17T05:43:51.511Z,540.00
2018-05-17T05:44:51.484Z,551.25
2018-05-17T05:45:51.469Z,562.50
2018-05-17T05:46:51.430Z,573.75
2018-05-17T05:47:51.451Z,585.00
2018-05-17T05:48:51.379Z,596.25
2018-05-17T05:49:51.395Z,613.13
2018-05-17T05:50:51.331Z,630.00
2018-05-17T05:51:51.306Z,669.38
2018-05-17T05:52:51.289Z,669.38
2018-05-17T05:53:51.256Z,646.88
2018-05-17T05:54:51.272Z,675.00
2018-05-17T05:55:51.199Z,708.75
2018-05-17T05:56:51.176Z,652.50
2018-05-17T05:57:51.161Z,731.25
2018-05-17T05:58:51.123Z,714.38
2018-05-17T05:59:51.157Z,736.88
2018-05-17T06:00:51.089Z,736.88
2018-05-17T06:01:51.053Z,832.50
2018-05-17T06:02:51.031Z,798.75
2018-05-17T06:03:51.006Z,810.00
2018-05-17T06:04:51.040Z,787.50
2018-05-17T06:05:50.955Z,776.25
2018-05-17T06:06:50.926Z,770.63
2018-05-17T06:07:50.930Z,765.00
2018-05-17T06:08:50.880Z,798.75
2018-05-17T06:09:50.899Z,900.00
2018-05-17T06:10:50.836Z,877.50
2018-05-17T06:11:50.826Z,905.63
2018-05-17T06:12:50.793Z,860.63
2018-05-17T06:13:50.814Z,855.00
2018-05-17T06:14:50.739Z,810.00
2018-05-17T06:15:50.716Z,883.13
2018-05-17T06:16:50.734Z,798.75
2018-05-17T06:17:50.666Z,855.00
2018-05-17T06:18:50.641Z,877.50
2018-05-17T06:19:50.655Z,838.13
2018-05-17T06:20:50.593Z,753.75
2018-05-17T06:21:51.039Z,731.25
2018-05-17T06:22:50.578Z,787.50
2018-05-17T06:23:50.619Z,832.50
2018-05-17T06:24:50.515Z,945.00
2018-05-17T06:25:50.482Z,860.63
2018-05-17T06:26:50.538Z,866.25
2018-05-17T06:27:50.436Z,838.13
2018-05-17T06:28:50.410Z,635.63
2018-05-17T06:29:50.387Z,658.13
2018-05-17T06:30:50.410Z,669.38
2018-05-17T06:31:50.979Z,646.88
2018-05-17T06:32:50.388Z,613.13
2018-05-17T06:33:50.342Z,540.00
2018-05-17T06:34:50.268Z,545.63
2018-05-17T06:35:50.258Z,551.25
2018-05-17T06:36:50.237Z,523.13
2018-05-17T06:37:50.203Z,556.88
2018-05-17T06:38:50.224Z,483.75
2018-05-17T06:39:50.156Z,472.50
2018-05-17T06:40:50.128Z,450.00
2018-05-17T06:41:50.109Z,405.00
2018-05-17T06:42:50.087Z,416.25
2018-05-17T06:43:50.117Z,433.13
2018-05-17T06:44:50.088Z,427.50
2018-05-17T06:45:50.006Z,427.50
2018-05-17T06:46:49.996Z,455.63
2018-05-17T06:47:49.965Z,478.13
2018-05-17T06:48:49.986Z,495.00
2018-05-17T06:49:49.920Z,562.50
2018-05-17T06:50:49.889Z,686.25
2018-05-17T06:51:49.880Z,838.13
2018-05-17T06:52:49.883Z,697.50
2018-05-17T06:53:49.812Z,810.00
2018-05-17T06:54:49.792Z,911.25
2018-05-17T06:55:49.769Z,838.13
2018-05-17T06:56:49.807Z,956.25
2018-05-17T06:57:49.721Z,849.38
2018-05-17T06:58:49.696Z,900.00
2018-05-17T06:59:49.678Z,765.00
2018-05-17T07:00:49.691Z,776.25
2018-05-17T07:01:49.672Z,641.25
2018-05-17T07:02:49.597Z,725.63
2018-05-17T07:03:49.642Z,646.88
2018-05-17T07:04:49.557Z,686.25
2018-05-17T07:05:49.529Z,652.50
2018-05-17T07:06:49.584Z,798.75
2018-05-17T07:07:49.480Z,849.38
2018-05-17T07:08:49.461Z,866.25
2018-05-17T07:09:49.440Z,956.25
2018-05-17T07:10:49.409Z,928.13
2018-05-17T07:11:49.456Z,759.38
2018-05-17T07:12:49.362Z,765.00
2018-05-17T07:13:49.340Z,697.50
2018-05-17T07:14:49.325Z,585.00
2018-05-17T07:15:49.295Z,669.38
2018-05-17T07:16:49.552Z,691.88
2018-05-17T07:17:49.351Z,714.38
2018-05-17T07:18:49.384Z,866.25
2018-05-17T07:19:49.214Z,787.50
2018-05-17T07:20:49.176Z,787.50
2018-05-17T07:21:49.158Z,691.88
2018-05-17T07:22:49.135Z,742.50
2018-05-17T07:23:49.242Z,703.13
2018-05-17T07:24:49.091Z,804.38
2018-05-17T07:25:49.066Z,860.63
2018-05-17T07:26:49.047Z,871.88
2018-05-17T07:27:49.017Z,939.38
2018-05-17T07:28:49.055Z,1012.50
2018-05-17T07:29:48.978Z,888.75
2018-05-17T07:30:48.949Z,855.00
2018-05-17T07:31:48.934Z,855.00
2018-05-17T07:32:48.902Z,849.38
2018-05-17T07:33:48.938Z,1018.13
2018-05-17T07:34:48.859Z,1023.75
2018-05-17T07:35:48.885Z,956.25
2018-05-17T07:36:48.817Z,883.13
2018-05-17T07:37:48.792Z,877.50
2018-05-17T07:38:48.774Z,826.88
2018-05-17T07:39:48.750Z,810.00
2018-05-17T07:40:48.773Z,871.88
2018-05-17T07:41:48.703Z,826.88
2018-05-17T07:42:48.731Z,911.25
2018-05-17T07:43:48.731Z,911.25
2018-05-17T07:44:48.638Z,815.63
2018-05-17T07:45:48.671Z,781.88
2018-05-17T07:46:48.669Z,832.50
2018-05-17T07:47:48.578Z,894.38
2018-05-17T07:48:48.550Z,860.63
2018-05-17T07:49:48.523Z,950.63
2018-05-17T07:50:48.547Z,877.50
2018-05-17T07:51:48.492Z,765.00
2018-05-17T07:52:48.457Z,815.63
2018-05-17T07:53:48.995Z,798.75
2018-05-17T07:54:48.417Z,905.63
2018-05-17T07:55:48.438Z,798.75
2018-05-17T07:56:48.373Z,736.88
2018-05-17T07:57:48.353Z,888.75
2018-05-17T07:58:48.341Z,922.50
2018-05-17T07:59:48.303Z,877.50
2018-05-17T08:00:48.325Z,821.25
2018-05-17T08:01:48.268Z,731.25
2018-05-17T08:02:48.377Z,759.38
2018-05-17T08:03:48.221Z,810.00
2018-05-17T08:04:48.187Z,826.88
2018-05-17T08:05:48.185Z,793.13
2018-05-17T08:06:48.143Z,781.88
2018-05-17T08:07:48.181Z,804.38
2018-05-17T08:08:48.105Z,804.38
2018-05-17T08:09:48.076Z,894.38
2018-05-17T08:10:48.060Z,933.75
2018-05-17T08:11:48.034Z,939.38
2018-05-17T08:12:48.060Z,883.13
2018-05-17T08:13:47.999Z,883.13
2018-05-17T08:14:47.963Z,866.25
2018-05-17T08:15:47.990Z,849.38
2018-05-17T08:16:47.922Z,810.00
2018-05-17T08:17:47.901Z,871.88
2018-05-17T08:18:47.880Z,1001.25
2018-05-17T08:19:47.858Z,967.50
2018-05-17T08:20:47.878Z,978.75
2018-05-17T08:21:47.813Z,956.25
2018-05-17T08:22:47.792Z,922.50
2018-05-17T08:23:47.764Z,888.75
2018-05-17T08:24:47.801Z,950.63
2018-05-17T08:25:47.772Z,905.63
2018-05-17T08:26:47.714Z,894.38
2018-05-17T08:27:47.680Z,781.88
2018-05-17T08:28:47.650Z,776.25
2018-05-17T08:29:47.688Z,765.00
2018-05-17T08:30:47.664Z,765.00
2018-05-17T08:31:47.595Z,714.38
2018-05-17T08:32:47.564Z,888.75
2018-05-17T08:33:47.550Z,871.88
2018-05-17T08:34:47.519Z,945.00
2018-05-17T08:35:47.559Z,770.63
2018-05-17T08:36:47.563Z,860.63
2018-05-17T08:37:47.452Z,956.25
2018-05-17T08:38:47.436Z,933.75
2018-05-17T08:39:47.411Z,832.50
2018-05-17T08:40:47.448Z,894.38
2018-05-17T08:41:47.414Z,933.75
2018-05-17T08:42:47.360Z,905.63
2018-05-17T08:43:47.323Z,832.50
2018-05-17T08:44:47.300Z,765.00
2018-05-17T08:45:47.281Z,793.13
2018-05-17T08:46:47.316Z,911.25
2018-05-17T08:47:47.245Z,961.88
2018-05-17T08:48:47.215Z,928.13
2018-05-17T08:49:47.196Z,984.38
2018-05-17T08:50:47.169Z,1046.25
2018-05-17T08:51:47.212Z,984.38
2018-05-17T08:52:47.182Z,945.00
2018-05-17T08:53:47.104Z,916.88
2018-05-17T08:54:47.088Z,933.75
2018-05-17T08:55:47.059Z,905.63
2018-05-17T08:56:48.026Z,826.88
2018-05-17T08:57:47.056Z,905.63
2018-05-17T08:58:47.042Z,967.50
2018-05-17T08:59:47.031Z,1074.38
2018-05-17T09:00:46.953Z,922.50
2018-05-17T09:01:46.936Z,866.25
2018-05-17T09:02:46.907Z,945.00
2018-05-17T09:03:46.950Z,849.38
2018-05-17T09:04:46.865Z,815.63
2018-05-17T09:05:46.849Z,905.63
2018-05-17T09:06:46.822Z,1023.75
2018-05-17T09:07:46.805Z,894.38
2018-05-17T09:08:46.828Z,793.13
2018-05-17T09:09:46.811Z,765.00
2018-05-17T09:10:46.738Z,720.00
2018-05-17T09:11:46.729Z,826.88
2018-05-17T09:12:46.697Z,1029.38
2018-05-17T09:13:46.709Z,1181.25
2018-05-17T09:14:46.721Z,1113.75
2018-05-17T09:15:46.631Z,1091.25
2018-05-17T09:16:46.621Z,1141.88
2018-05-17T09:17:46.585Z,1119.38
2018-05-17T09:18:46.563Z,1012.50
2018-05-17T09:19:46.590Z,978.75
2018-05-17T09:20:46.544Z,1080.00
2018-05-17T09:21:46.507Z,1113.75
2018-05-17T09:22:46.478Z,1119.38
2018-05-17T09:23:46.462Z,1085.63
2018-05-17T09:24:46.484Z,1063.13
2018-05-17T09:25:46.420Z,1119.38
2018-05-17T09:26:46.396Z,1012.50
2018-05-17T09:27:46.450Z,1023.75
2018-05-17T09:28:46.355Z,990.00
2018-05-17T09:29:46.409Z,928.13
2018-05-17T09:30:46.409Z,860.63
2018-05-17T09:31:46.301Z,798.75
2018-05-17T09:32:46.277Z,787.50
2018-05-17T09:33:46.257Z,798.75
2018-05-17T09:34:46.286Z,905.63
2018-05-17T09:35:46.346Z,945.00
2018-05-17T09:36:46.198Z,978.75
2018-05-17T09:37:46.167Z,1108.13
2018-05-17T09:38:46.205Z,1080.00
2018-05-17T09:39:46.124Z,1125.00
2018-05-17T09:40:46.165Z,1141.88
2018-05-17T09:41:46.101Z,1186.88
2018-05-17T09:42:46.074Z,1164.38
2018-05-17T09:43:46.044Z,1141.88
2018-05-17T09:44:46.021Z,1113.75
2018-05-17T09:45:46.058Z,1018.13
2018-05-17T09:46:45.996Z,1023.75
2018-05-17T09:47:45.960Z,933.75
2018-05-17T09:48:45.950Z,990.00
2018-05-17T09:49:45.921Z,1046.25
2018-05-17T09:50:45.960Z,1001.25
2018-05-17T09:51:45.881Z,961.88
2018-05-17T09:52:45.856Z,978.75
2018-05-17T09:53:45.839Z,990.00
2018-05-17T09:54:45.819Z,900.00
2018-05-17T09:55:45.842Z,787.50
2018-05-17T09:56:45.775Z,748.13
2018-05-17T09:57:45.754Z,748.13
2018-05-17T09:58:45.739Z,860.63
2018-05-17T09:59:45.711Z,832.50
2018-05-17T10:00:45.752Z,928.13
2018-05-17T10:01:45.716Z,990.00
2018-05-17T10:02:45.660Z,950.63
2018-05-17T10:03:45.628Z,911.25
2018-05-17T10:04:45.623Z,883.13
2018-05-17T10:05:45.585Z,900.00
2018-05-17T10:06:45.639Z,939.38
2018-05-17T10:07:45.550Z,973.13
2018-05-17T10:08:45.542Z,950.63
2018-05-17T10:09:45.503Z,821.25
2018-05-17T10:10:45.485Z,759.38
2018-05-17T10:11:45.521Z,736.88
2018-05-17T10:12:45.439Z,663.75
2018-05-17T10:13:45.418Z,630.00
2018-05-17T10:14:45.417Z,646.88
2018-05-17T10:15:45.380Z,596.25
2018-05-17T10:16:45.401Z,624.38
2018-05-17T10:17:45.383Z,652.50
2018-05-17T10:18:45.312Z,669.38
2018-05-17T10:19:45.291Z,787.50
2018-05-17T10:20:45.271Z,888.75
2018-05-17T10:21:45.320Z,883.13
2018-05-17T10:22:45.285Z,871.88
2018-05-17T10:23:45.274Z,798.75
2018-05-17T10:24:45.180Z,725.63
2018-05-17T10:25:45.160Z,658.13
2018-05-17T10:26:45.145Z,663.75
2018-05-17T10:27:45.119Z,742.50
2018-05-17T10:28:45.141Z,776.25
2018-05-17T10:29:45.077Z,843.75
2018-05-17T10:30:45.071Z,843.75
2018-05-17T10:31:45.029Z,883.13
2018-05-17T10:32:45.009Z,770.63
2018-05-17T10:33:45.049Z,686.25
2018-05-17T10:34:44.972Z,697.50
2018-05-17T10:35:44.946Z,821.25
2018-05-17T10:36:44.957Z,810.00
2018-05-17T10:37:44.900Z,697.50
2018-05-17T10:38:45.087Z,641.25
2018-05-17T10:39:44.903Z,630.00
2018-05-17T10:40:44.870Z,703.13
2018-05-17T10:41:44.818Z,725.63
2018-05-17T10:42:44.791Z,776.25
2018-05-17T10:43:44.833Z,787.50
2018-05-17T10:44:44.750Z,798.75
2018-05-17T10:45:44.744Z,793.13
2018-05-17T10:46:44.714Z,680.63
2018-05-17T10:47:44.690Z,607.50
2018-05-17T10:48:44.718Z,691.88
2018-05-17T10:49:44.710Z,686.25
2018-05-17T10:50:44.622Z,641.25
2018-05-17T10:51:44.611Z,607.50
2018-05-17T10:52:44.578Z,517.50
2018-05-17T10:53:44.557Z,455.63
2018-05-17T10:54:44.581Z,472.50
2018-05-17T10:55:44.514Z,500.63
2018-05-17T10:56:44.509Z,438.75
2018-05-17T10:57:44.476Z,421.88
2018-05-17T10:58:44.500Z,450.00
2018-05-17T10:59:44.426Z,461.25
2018-05-17T11:00:44.467Z,438.75
2018-05-17T11:01:44.384Z,472.50
2018-05-17T11:02:44.359Z,483.75
2018-05-17T11:03:44.341Z,511.88
2018-05-17T11:04:44.317Z,528.75
2018-05-17T11:05:44.349Z,483.75
2018-05-17T11:06:44.281Z,478.13
2018-05-17T11:07:44.268Z,483.75
2018-05-17T11:08:44.233Z,483.75
2018-05-17T11:09:44.255Z,483.75
2018-05-17T11:10:44.207Z,461.25
2018-05-17T11:11:44.162Z,466.88
2018-05-17T11:12:44.161Z,450.00
2018-05-17T11:13:44.117Z,466.88
2018-05-17T11:14:44.136Z,472.50
2018-05-17T11:15:44.106Z,472.50
2018-05-17T11:16:44.048Z,483.75
2018-05-17T11:17:44.039Z,478.13
2018-05-17T11:18:44.025Z,478.13
2018-05-17T11:19:44.039Z,483.75
2018-05-17T11:20:43.958Z,483.75
2018-05-17T11:21:43.945Z,489.38
2018-05-17T11:22:43.964Z,495.00
2018-05-17T11:23:43.910Z,495.00
2018-05-17T11:24:43.880Z,517.50
2018-05-17T11:25:43.902Z,540.00
2018-05-17T11:26:43.838Z,523.13
2018-05-17T11:27:43.803Z,495.00
2018-05-17T11:28:43.805Z,478.13
2018-05-17T11:29:43.763Z,472.50
2018-05-17T11:30:43.787Z,472.50
2018-05-17T11:31:43.723Z,483.75
2018-05-17T11:32:43.694Z,489.38
2018-05-17T11:33:43.679Z,478.13
2018-05-17T11:34:43.647Z,450.00
2018-05-17T11:35:43.677Z,483.75
2018-05-17T11:36:43.644Z,489.38
2018-05-17T11:37:43.583Z,495.00
2018-05-17T11:38:43.611Z,500.63
2018-05-17T11:39:43.544Z,517.50
2018-05-17T11:40:43.535Z,506.25
2018-05-17T11:41:43.494Z,506.25
2018-05-17T11:42:43.484Z,500.63
2018-05-17T11:43:43.619Z,511.88
2018-05-17T11:44:43.431Z,511.88
2018-05-17T11:45:43.420Z,511.88
2018-05-17T11:46:43.382Z,506.25
2018-05-17T11:47:44.053Z,500.63
2018-05-17T11:48:43.384Z,483.75
2018-05-17T11:49:43.315Z,495.00
2018-05-17T11:50:43.296Z,483.75
2018-05-17T11:51:43.274Z,500.63
2018-05-17T11:52:43.300Z,506.25
2018-05-17T11:53:44.066Z,495.00
2018-05-17T11:54:43.273Z,523.13
2018-05-17T11:55:43.188Z,506.25
2018-05-17T11:56:43.180Z,500.63
2018-05-17T11:57:43.186Z,500.63
2018-05-17T11:58:43.605Z,495.00
2018-05-17T11:59:43.102Z,500.63
2018-05-17T12:00:43.120Z,517.50
2018-05-17T12:01:43.050Z,511.88
2018-05-17T12:02:43.162Z,511.88
2018-05-17T12:03:43.013Z,523.13
2018-05-17T12:04:43.556Z,528.75
2018-05-17T12:05:42.959Z,506.25
2018-05-17T12:06:42.939Z,500.63
2018-05-17T12:07:42.981Z,511.88
2018-05-17T12:08:42.898Z,517.50
2018-05-17T12:09:42.875Z,506.25
2018-05-17T12:10:42.857Z,489.38
2018-05-17T12:11:42.842Z,455.63
2018-05-17T12:12:42.860Z,472.50
2018-05-17T12:13:42.783Z,478.13
2018-05-17T12:14:42.764Z,483.75
2018-05-17T12:15:42.740Z,495.00
2018-05-17T12:16:42.800Z,517.50
2018-05-17T12:17:42.698Z,528.75
2018-05-17T12:18:42.680Z,528.75
2018-05-17T12:19:42.689Z,506.25
2018-05-17T12:20:42.649Z,506.25
2018-05-17T12:21:42.662Z,489.38
2018-05-17T12:22:43.135Z,483.75
2018-05-17T12:23:42.579Z,506.25
2018-05-17T12:24:42.567Z,511.88
2018-05-17T12:25:42.529Z,506.25
2018-05-17T12:26:42.545Z,478.13
2018-05-17T12:27:42.553Z,450.00
2018-05-17T12:28:42.459Z,461.25
2018-05-17T12:29:42.438Z,461.25
2018-05-17T12:30:42.416Z,461.25
2018-05-17T12:31:43.132Z,461.25
2018-05-17T12:32:42.422Z,461.25
2018-05-17T12:33:42.404Z,466.88
2018-05-17T12:34:42.334Z,466.88
2018-05-17T12:35:42.310Z,472.50
2018-05-17T12:36:42.285Z,466.88
2018-05-17T12:37:42.268Z,461.25
2018-05-17T12:38:42.300Z,466.88
2018-05-17T12:39:42.241Z,466.88